Time;durP1;ratioP1;P1;durP2;ratioP2;P2;SDS_P1;SDS_P2;PMS_P1;PMS_P2;Temp;Humidity;BMP_temperature;BMP_pressure;BME280_temperature;BME280_humidity;BME280_pressure;Samples;Min_cycle;Max_cycle;Signal;HPM_P1;HPM_P2
2023/06/03 00:02:07;;;;;;;;;;;;;;;19.39;100.00;99352.84;5008914;28;19924;-76
2023/06/03 00:04:32;;;;;;;;;;;;;;;19.38;100.00;99356.56;5006346;28;19941;-78
2023/06/03 00:06:58;;;;;;;;;;;;;;;19.33;100.00;99359.00;5007477;28;19913;-75
2023/06/03 00:09:24;;;;;;;;;;;;;;;19.29;100.00;99352.44;5007834;28;19957;-77
2023/06/03 00:11:50;;;;;;;;;;;;;;;19.31;100.00;99345.03;5005188;28;19914;-77
2023/06/03 00:14:16;;;;;;;;;;;;;;;19.29;100.00;99344.41;5006188;28;19924;-75
2023/06/03 00:16:47;;;;;;;;;;;;;;;19.22;100.00;99353.25;5009073;28;19921;-77
2023/06/03 00:19:14;;;;;;;;;;;;;;;19.18;100.00;99352.00;5006093;28;20354;-77
2023/06/03 00:21:45;;;;;;;;;;;;;;;19.05;100.00;99351.97;5008916;28;19940;-77
2023/06/03 00:24:14;;;;;;;;;;;;;;;19.02;100.00;99357.75;5005185;28;19917;-78
2023/06/03 00:26:40;;;;;;;;;;;;;;;18.94;100.00;99355.25;5008772;28;20297;-78
2023/06/03 00:29:05;;;;;;;;;;;;;;;18.90;100.00;99359.34;5008575;28;19928;-77
2023/06/03 00:31:31;;;;;;;;;;;;;;;18.78;100.00;99360.94;5006130;28;20544;-77
2023/06/03 00:33:56;;;;;;;;;;;;;;;18.70;100.00;99364.63;5006978;28;19921;-78
2023/06/03 00:36:22;;;;;;;;;;;;;;;18.69;100.00;99362.97;5007391;28;19917;-77
2023/06/03 00:38:47;;;;;;;;;;;;;;;18.72;100.00;99367.09;5008968;28;20023;-76
2023/06/03 00:41:13;;;;;;;;;;;;;;;18.75;100.00;99366.69;4987811;28;19969;-78
2023/06/03 00:43:38;;;;;;;;;;;;;;;18.74;100.00;99365.84;4990456;28;19917;-77
2023/06/03 00:46:04;;;;;;;;;;;;;;;18.79;100.00;99373.28;4987994;28;19918;-78
2023/06/03 00:48:30;;;;;;;;;;;;;;;18.82;100.00;99378.22;5006865;28;19921;-78
2023/06/03 00:50:55;;;;;;;;;;;;;;;18.85;100.00;99377.03;4988628;28;20004;-76
2023/06/03 00:53:21;;;;;;;;;;;;;;;18.85;100.00;99377.81;5005915;28;19918;-76
2023/06/03 00:55:47;;;;;;;;;;;;;;;18.88;100.00;99382.78;4989704;28;19917;-77
2023/06/03 00:58:12;;;;;;;;;;;;;;;18.91;100.00;99392.25;5006352;28;19929;-77
2023/06/03 01:00:37;;;;;;;;;;;;;;;18.89;100.00;99400.47;5003010;28;19929;-77
2023/06/03 01:03:03;;;;;;;;;;;;;;;18.85;100.00;99399.19;5003392;28;19963;-77
2023/06/03 01:05:28;;;;;;;;;;;;;;;18.79;100.00;99400.03;5007297;28;19918;-78
2023/06/03 01:08:07;;;;;;;;;;;;;;;18.76;100.00;99397.75;5006809;28;20000;-78
2023/06/03 01:10:33;;;;;;;;;;;;;;;18.69;100.00;99402.22;4990367;28;19925;-77
2023/06/03 01:12:58;;;;;;;;;;;;;;;18.59;100.00;99407.13;5005779;28;19924;-77
2023/06/03 01:15:28;;;;;;;;;;;;;;;18.56;100.00;99421.69;5009352;28;19917;-77
2023/06/03 01:17:57;;;;;;;;;;;;;;;18.51;100.00;99412.56;5006591;28;20040;-78
2023/06/03 01:20:26;;;;;;;;;;;;;;;18.50;100.00;99410.91;4989135;28;19925;-78
2023/06/03 01:22:56;;;;;;;;;;;;;;;18.48;100.00;99415.66;5004875;28;19944;-77
2023/06/03 01:25:23;;;;;;;;;;;;;;;18.45;100.00;99408.84;5006234;28;19929;-78
2023/06/03 01:27:48;;;;;;;;;;;;;;;18.45;100.00;99411.53;4990396;28;19922;-77
2023/06/03 01:30:15;;;;;;;;;;;;;;;18.45;100.00;99410.69;5007381;28;19932;-77
2023/06/03 01:32:42;;;;;;;;;;;;;;;18.42;100.00;99410.09;5003616;28;20000;-77
2023/06/03 01:35:09;;;;;;;;;;;;;;;18.37;100.00;99407.19;5001366;28;20289;-78
2023/06/03 01:37:34;;;;;;;;;;;;;;;18.34;100.00;99412.91;4986434;28;20336;-77
2023/06/03 01:40:02;;;;;;;;;;;;;;;18.36;100.00;99416.22;5001954;28;19973;-78
2023/06/03 01:42:31;;;;;;;;;;;;;;;18.33;100.00;99411.25;5003101;28;20361;-77
2023/06/03 01:44:57;;;;;;;;;;;;;;;18.32;100.00;99409.59;5002264;28;19931;-78
2023/06/03 01:47:23;;;;;;;;;;;;;;;18.33;100.00;99410.41;5002132;28;19917;-78
2023/06/03 01:49:49;;;;;;;;;;;;;;;18.32;100.00;99414.94;5003254;28;19921;-78
2023/06/03 01:52:15;;;;;;;;;;;;;;;18.29;100.00;99411.84;4983388;28;19921;-77
2023/06/03 01:54:40;;;;;;;;;;;;;;;18.27;100.00;99412.03;5004075;28;19917;-78
2023/06/03 01:57:06;;;;;;;;;;;;;;;18.24;100.00;99407.09;5004000;28;19921;-78
2023/06/03 01:59:32;;;;;;;;;;;;;;;18.22;100.00;99409.13;5000917;28;19940;-78
2023/06/03 02:01:58;;;;;;;;;;;;;;;18.19;100.00;99406.84;4984351;28;19989;-78
2023/06/03 02:04:24;;;;;;;;;;;;;;;18.16;100.00;99419.75;5001657;28;19917;-77
2023/06/03 02:06:53;;;;;;;;;;;;;;;18.12;100.00;99414.00;4999886;28;19953;-75
2023/06/03 02:09:24;;;;;;;;;;;;;;;18.06;100.00;99414.75;4982931;28;20027;-76
2023/06/03 02:11:52;;;;;;;;;;;;;;;17.96;100.00;99414.28;5001110;28;19928;-75
2023/06/03 02:14:18;;;;;;;;;;;;;;;17.95;100.00;99409.97;4983623;28;19918;-77
2023/06/03 02:16:43;;;;;;;;;;;;;;;17.88;100.00;99404.56;4986143;28;20278;-78
2023/06/03 02:19:14;;;;;;;;;;;;;;;17.89;100.00;99402.72;4983189;28;19918;-76
2023/06/03 02:21:39;;;;;;;;;;;;;;;17.86;100.00;99408.44;4999927;28;20321;-77
2023/06/03 02:24:06;;;;;;;;;;;;;;;17.88;100.00;99411.75;5001085;28;19922;-77
2023/06/03 02:26:33;;;;;;;;;;;;;;;17.88;100.00;99411.75;5002842;28;19968;-76
2023/06/03 02:28:59;;;;;;;;;;;;;;;17.83;100.00;99411.50;4983497;28;19983;-76
2023/06/03 02:31:25;;;;;;;;;;;;;;;17.80;100.00;99419.88;4984480;28;19917;-77
2023/06/03 02:33:50;;;;;;;;;;;;;;;17.76;100.00;99421.28;5002074;28;20004;-76
2023/06/03 02:36:18;;;;;;;;;;;;;;;17.78;100.00;99432.59;4983319;28;19921;-77
2023/06/03 02:38:44;;;;;;;;;;;;;;;17.76;100.00;99430.13;4985933;28;19918;-76
2023/06/03 02:41:10;;;;;;;;;;;;;;;17.74;100.00;99426.81;4985794;28;20061;-78
2023/06/03 02:43:35;;;;;;;;;;;;;;;17.76;100.00;99423.94;5002869;28;20012;-76
2023/06/03 02:46:01;;;;;;;;;;;;;;;17.75;100.00;99427.63;5002079;28;20320;-76
2023/06/03 02:48:27;;;;;;;;;;;;;;;17.73;100.00;99435.81;5002168;28;19918;-76
2023/06/03 02:50:52;;;;;;;;;;;;;;;17.76;100.00;99446.13;4985831;28;19924;-76
2023/06/03 02:53:18;;;;;;;;;;;;;;;17.77;100.00;99441.63;4970995;28;19945;-76
2023/06/03 02:55:45;;;;;;;;;;;;;;;17.73;100.00;99445.69;5028617;28;19944;-76
2023/06/03 02:58:12;;;;;;;;;;;;;;;17.73;100.00;99451.03;5009583;28;19917;-76
2023/06/03 03:00:39;;;;;;;;;;;;;;;17.65;100.00;99456.50;5014362;28;19917;-75
2023/06/03 03:03:04;;;;;;;;;;;;;;;17.67;100.00;99457.13;5001914;28;19918;-76
2023/06/03 03:05:30;;;;;;;;;;;;;;;17.61;100.00;99456.06;5000996;28;20033;-76
2023/06/03 03:07:58;;;;;;;;;;;;;;;17.63;100.00;99461.19;5000909;28;20422;-76
2023/06/03 03:10:24;;;;;;;;;;;;;;;17.64;100.00;99473.50;4983398;28;19926;-74
2023/06/03 03:12:50;;;;;;;;;;;;;;;17.67;100.00;99467.81;4979704;28;19925;-75
2023/06/03 03:15:16;;;;;;;;;;;;;;;17.67;100.00;99468.63;5003624;28;19918;-76
2023/06/03 03:17:44;;;;;;;;;;;;;;;17.72;100.00;99476.06;4983771;28;20015;-76
2023/06/03 03:20:10;;;;;;;;;;;;;;;17.65;100.00;99483.19;4969439;28;19976;-76
2023/06/03 03:22:39;;;;;;;;;;;;;;;17.68;100.00;99480.94;4984617;28;19917;-77
2023/06/03 03:25:05;;;;;;;;;;;;;;;17.70;100.00;99478.91;4982351;28;21321;-76
2023/06/03 03:27:30;;;;;;;;;;;;;;;17.72;100.00;99481.41;4983510;28;19918;-77
2023/06/03 03:29:58;;;;;;;;;;;;;;;17.74;100.00;99484.69;5000870;28;19956;-77
2023/06/03 03:32:23;;;;;;;;;;;;;;;17.75;100.00;99487.19;5000081;28;19918;-77
2023/06/03 03:35:06;;;;;;;;;;;;;;;17.79;100.00;99487.66;4983401;28;19929;-75
2023/06/03 03:37:31;;;;;;;;;;;;;;;17.82;100.00;99497.94;5001013;28;20063;-77
2023/06/03 03:39:57;;;;;;;;;;;;;;;17.81;100.00;99490.94;5000853;28;19923;-76
2023/06/03 03:42:23;;;;;;;;;;;;;;;17.75;100.00;99497.03;4982289;28;19918;-76
2023/06/03 03:44:49;;;;;;;;;;;;;;;17.68;100.00;99491.63;4983771;28;20011;-75
2023/06/03 03:47:19;;;;;;;;;;;;;;;17.68;100.00;99486.28;5001755;28;19953;-76
2023/06/03 03:49:46;;;;;;;;;;;;;;;17.69;100.00;99487.09;5006228;28;19917;-77
2023/06/03 03:52:13;;;;;;;;;;;;;;;17.71;100.00;99479.75;4984740;28;19921;-74
2023/06/03 03:54:39;;;;;;;;;;;;;;;17.74;100.00;99487.34;4987764;28;19914;-77
2023/06/03 03:57:09;;;;;;;;;;;;;;;17.77;100.00;99497.66;4985287;28;20025;-77
2023/06/03 03:59:35;;;;;;;;;;;;;;;17.81;100.00;99490.94;5004903;28;20004;-77
2023/06/03 04:02:01;;;;;;;;;;;;;;;17.83;100.00;99488.91;4985847;28;19925;-75
2023/06/03 04:04:36;;;;;;;;;;;;;;;17.86;100.00;99493.84;5003177;28;19921;-76
2023/06/03 04:07:01;;;;;;;;;;;;;;;17.82;100.00;99487.25;4983979;28;19945;-77
2023/06/03 04:09:27;;;;;;;;;;;;;;;17.82;100.00;99492.59;4970224;28;19972;-76
2023/06/03 04:11:53;;;;;;;;;;;;;;;17.84;100.00;99493.22;5002725;28;19921;-76
2023/06/03 04:14:31;;;;;;;;;;;;;;;17.82;100.00;99497.94;4987319;28;20354;-76
2023/06/03 04:16:58;;;;;;;;;;;;;;;17.80;100.00;99507.94;4986356;28;19913;-77
2023/06/03 04:19:37;;;;;;;;;;;;;;;17.81;100.00;99509.63;5004584;28;19952;-77
2023/06/03 04:22:08;;;;;;;;;;;;;;;17.82;100.00;99511.28;4984765;28;20012;-76
2023/06/03 04:24:35;;;;;;;;;;;;;;;17.75;100.00;99507.69;5004228;28;19924;-77
2023/06/03 04:27:06;;;;;;;;;;;;;;;17.69;100.00;99509.28;4985651;28;20336;-77
2023/06/03 04:29:33;;;;;;;;;;;;;;;17.53;100.00;99530.84;5003881;28;20393;-75
2023/06/03 04:31:59;;;;;;;;;;;;;;;17.54;100.00;99533.34;5018024;28;19917;-76
2023/06/03 04:34:28;;;;;;;;;;;;;;;17.58;100.00;99529.25;5002366;28;19961;-76
2023/06/03 04:36:54;;;;;;;;;;;;;;;17.65;100.00;99531.22;5018194;28;20008;-77
2023/06/03 04:39:20;;;;;;;;;;;;;;;17.67;100.00;99524.66;5002197;28;20627;-77
2023/06/03 04:41:49;;;;;;;;;;;;;;;17.74;100.00;99532.72;4986199;28;20428;-78
2023/06/03 04:44:15;;;;;;;;;;;;;;;17.79;100.00;99530.34;4984056;28;19924;-77
2023/06/03 04:46:45;;;;;;;;;;;;;;;17.76;100.00;99541.38;5004655;28;20083;-77
2023/06/03 04:49:11;;;;;;;;;;;;;;;17.76;100.00;99536.88;4984525;28;19918;-77
2023/06/03 04:51:40;;;;;;;;;;;;;;;17.78;100.00;99534.03;5003892;28;19920;-78
2023/06/03 04:54:07;;;;;;;;;;;;;;;17.79;100.00;99533.00;5002001;28;19947;-78
2023/06/03 04:56:34;;;;;;;;;;;;;;;17.86;100.00;99536.56;5002964;28;20020;-77
2023/06/03 04:59:03;;;;;;;;;;;;;;;17.86;100.00;99539.22;4984468;28;20289;-78
2023/06/03 05:01:36;;;;;;;;;;;;;;;17.80;100.00;99542.66;4985420;28;19972;-78
2023/06/03 05:04:02;;;;;;;;;;;;;;;17.74;100.00;99546.06;5001979;28;19921;-76
2023/06/03 05:06:32;;;;;;;;;;;;;;;17.71;100.00;99543.81;4985287;28;20620;-79
2023/06/03 05:08:58;;;;;;;;;;;;;;;17.65;100.00;99544.56;4984843;28;19927;-78
2023/06/03 05:11:24;;;;;;;;;;;;;;;17.61;100.00;99548.63;4968294;28;19996;-76
2023/06/03 05:13:51;;;;;;;;;;;;;;;17.67;100.00;99553.22;5003263;28;19917;-75
2023/06/03 05:16:16;;;;;;;;;;;;;;;17.73;100.00;99552.44;4983443;28;19917;-76
2023/06/03 05:18:43;;;;;;;;;;;;;;;17.81;100.00;99555.00;5004955;28;20371;-77
2023/06/03 05:21:09;;;;;;;;;;;;;;;17.89;100.00;99553.03;5000498;28;19918;-77
2023/06/03 05:23:35;;;;;;;;;;;;;;;17.93;100.00;99558.81;5002828;28;19917;-76
2023/06/03 05:26:01;;;;;;;;;;;;;;;18.03;100.00;99564.66;4984049;28;20366;-75
2023/06/03 05:28:27;;;;;;;;;;;;;;;18.12;100.00;99557.38;5001897;28;19917;-77
2023/06/03 05:30:53;;;;;;;;;;;;;;;18.21;100.00;99557.03;4985782;28;20677;-77
2023/06/03 05:33:27;;;;;;;;;;;;;;;18.25;100.00;99563.66;4988051;28;19986;-77
2023/06/03 05:35:57;;;;;;;;;;;;;;;18.33;100.00;99560.00;4984717;28;19967;-76
2023/06/03 05:38:24;;;;;;;;;;;;;;;18.33;100.00;99566.19;4985849;28;19996;-77
2023/06/03 05:40:50;;;;;;;;;;;;;;;18.34;100.00;99573.19;5001276;28;20427;-77
2023/06/03 05:43:16;;;;;;;;;;;;;;;18.36;100.00;99571.16;4988871;28;19928;-78
2023/06/03 05:45:42;;;;;;;;;;;;;;;18.50;100.00;99566.72;4987585;28;19921;-77
2023/06/03 05:48:08;;;;;;;;;;;;;;;18.60;100.00;99571.78;5008334;28;20377;-77
2023/06/03 05:50:36;;;;;;;;;;;;;;;18.74;100.00;99570.84;5006877;28;19963;-78
2023/06/03 05:53:03;;;;;;;;;;;;;;;18.84;100.00;99581.22;5006450;28;20320;-76
2023/06/03 05:55:29;;;;;;;;;;;;;;;18.94;100.00;99576.34;5004701;28;19964;-78
2023/06/03 05:57:55;;;;;;;;;;;;;;;19.07;100.00;99577.25;5002603;28;20368;-78
2023/06/03 06:00:20;;;;;;;;;;;;;;;19.19;100.00;99573.00;5001228;28;19925;-78
2023/06/03 06:02:51;;;;;;;;;;;;;;;19.28;100.00;99575.50;4985263;28;19940;-78
2023/06/03 06:05:17;;;;;;;;;;;;;;;19.42;100.00;99582.59;5000440;28;20371;-78
2023/06/03 06:07:42;;;;;;;;;;;;;;;19.55;100.00;99575.47;5003176;28;20016;-77
2023/06/03 06:10:09;;;;;;;;;;;;;;;19.69;100.00;99576.34;4981789;28;19917;-78
2023/06/03 06:12:35;;;;;;;;;;;;;;;19.77;100.00;99576.16;5015812;28;19917;-77
2023/06/03 06:15:01;;;;;;;;;;;;;;;19.87;100.00;99584.63;5002379;28;19925;-78
2023/06/03 06:17:27;;;;;;;;;;;;;;;19.97;100.00;99582.38;4984603;28;19918;-79
2023/06/03 06:19:52;;;;;;;;;;;;;;;20.10;100.00;99586.13;5003578;28;20289;-78
2023/06/03 06:22:18;;;;;;;;;;;;;;;20.20;100.00;99586.56;4982825;28;19981;-79
2023/06/03 06:24:44;;;;;;;;;;;;;;;20.30;100.00;99587.00;5003096;28;20452;-78
2023/06/03 06:27:10;;;;;;;;;;;;;;;20.29;100.00;99596.06;4982812;28;20381;-78
2023/06/03 06:29:36;;;;;;;;;;;;;;;20.38;100.00;99594.88;4984500;28;19926;-78
2023/06/03 06:32:03;;;;;;;;;;;;;;;20.52;100.00;99595.69;4985149;28;19922;-77
2023/06/03 06:34:31;;;;;;;;;;;;;;;20.50;100.00;99598.56;4985486;28;20289;-78
2023/06/03 06:36:58;;;;;;;;;;;;;;;20.37;100.00;99602.09;4985036;28;19918;-77
2023/06/03 06:39:41;;;;;;;;;;;;;;;20.40;100.00;99603.50;4986177;28;19917;-77
2023/06/03 06:42:13;;;;;;;;;;;;;;;20.43;100.00;99611.16;5010557;28;19917;-77
2023/06/03 06:44:46;;;;;;;;;;;;;;;20.38;100.00;99608.28;4996219;28;20111;-79
2023/06/03 06:47:12;;;;;;;;;;;;;;;20.42;100.00;99613.00;4983791;28;20024;-78
2023/06/03 06:49:37;;;;;;;;;;;;;;;20.48;100.00;99616.72;5001911;28;19964;-78
2023/06/03 06:52:05;;;;;;;;;;;;;;;20.53;100.00;99619.63;4982745;28;19979;-77
2023/06/03 06:54:32;;;;;;;;;;;;;;;20.51;100.00;99628.88;4984018;28;19968;-77
2023/06/03 06:56:58;;;;;;;;;;;;;;;20.50;100.00;99624.56;5001407;28;20007;-76
2023/06/03 06:59:24;;;;;;;;;;;;;;;20.44;100.00;99636.91;4987627;28;19917;-76
2023/06/03 07:01:50;;;;;;;;;;;;;;;20.37;100.00;99636.09;4984391;28;19917;-78
2023/06/03 07:04:16;;;;;;;;;;;;;;;20.45;100.00;99643.94;4982358;28;19925;-78
2023/06/03 07:06:41;;;;;;;;;;;;;;;20.52;100.00;99642.09;5002781;28;19921;-76
2023/06/03 07:09:07;;;;;;;;;;;;;;;20.45;100.00;99649.28;4999691;28;19917;-77
2023/06/03 07:11:41;;;;;;;;;;;;;;;20.52;100.00;99647.44;4983283;28;19917;-77
2023/06/03 07:14:06;;;;;;;;;;;;;;;20.63;100.00;99646.84;4981899;28;20375;-77
2023/06/03 07:16:32;;;;;;;;;;;;;;;20.73;100.00;99651.81;5003264;28;19921;-76
2023/06/03 07:18:58;;;;;;;;;;;;;;;20.76;100.00;99654.91;5000564;28;19971;-77
2023/06/03 07:21:33;;;;;;;;;;;;;;;20.81;100.00;99657.78;5003329;28;19960;-77
2023/06/03 07:24:01;;;;;;;;;;;;;;;20.89;100.00;99655.94;4986789;28;19917;-79
2023/06/03 07:26:33;;;;;;;;;;;;;;;20.93;100.00;99662.53;4986823;28;19918;-77
2023/06/03 07:28:59;;;;;;;;;;;;;;;21.08;100.00;99655.09;4986345;28;19918;-77
2023/06/03 07:31:25;;;;;;;;;;;;;;;21.20;100.00;99664.19;4986026;28;19964;-77
2023/06/03 07:33:52;;;;;;;;;;;;;;;21.24;100.00;99660.06;5004903;28;19918;-77
2023/06/03 07:36:24;;;;;;;;;;;;;;;21.24;100.00;99665.44;4986134;28;19918;-77
2023/06/03 07:38:50;;;;;;;;;;;;;;;21.24;100.00;99662.75;4987594;28;19956;-78
2023/06/03 07:41:20;;;;;;;;;;;;;;;21.41;100.00;99665.81;5002339;28;19972;-78
2023/06/03 07:43:46;;;;;;;;;;;;;;;21.46;100.00;99666.00;4984501;28;20788;-78
2023/06/03 07:46:12;;;;;;;;;;;;;;;21.53;100.00;99670.31;5005401;28;19959;-78
2023/06/03 07:48:37;;;;;;;;;;;;;;;21.70;100.00;99669.84;5005373;28;19953;-77
2023/06/03 07:51:04;;;;;;;;;;;;;;;21.86;100.00;99666.69;5003341;28;19921;-78
2023/06/03 07:53:35;;;;;;;;;;;;;;;22.01;100.00;99664.59;5003931;28;19918;-78
2023/06/03 07:56:04;;;;;;;;;;;;;;;21.99;100.00;99674.72;5003771;28;19968;-77
2023/06/03 07:58:30;;;;;;;;;;;;;;;22.11;100.00;99672.19;5003569;28;19949;-77
2023/06/03 08:00:56;;;;;;;;;;;;;;;22.27;100.00;99669.00;5003869;28;20003;-75
2023/06/03 08:03:25;;;;;;;;;;;;;;;22.31;100.00;99668.38;5002643;28;20012;-77
2023/06/03 08:05:52;;;;;;;;;;;;;;;22.28;100.00;99668.78;5004458;28;19933;-77
2023/06/03 08:08:17;;;;;;;;;;;;;;;22.19;100.00;99674.66;5002514;28;19918;-78
2023/06/03 08:10:47;;;;;;;;;;;;;;;22.16;100.00;99675.88;5005259;28;19972;-78
2023/06/03 08:13:16;;;;;;;;;;;;;;;22.14;100.00;99672.59;5001999;28;20398;-77
2023/06/03 08:15:41;;;;;;;;;;;;;;;22.07;100.00;99666.44;5004804;28;20397;-77
2023/06/03 08:18:07;;;;;;;;;;;;;;;21.99;100.00;99670.19;5004665;28;19922;-77
2023/06/03 08:20:34;;;;;;;;;;;;;;;21.98;100.00;99678.44;4984247;28;20333;-78
2023/06/03 08:23:00;;;;;;;;;;;;;;;21.96;100.00;99664.41;5003708;28;20362;-78
2023/06/03 08:25:25;;;;;;;;;;;;;;;21.96;100.00;99673.31;5004152;28;19917;-78
2023/06/03 08:27:51;;;;;;;;;;;;;;;22.02;100.00;99674.31;5002038;28;19949;-78
2023/06/03 08:30:17;;;;;;;;;;;;;;;22.08;100.00;99684.22;5004632;28;19917;-78
2023/06/03 08:32:45;;;;;;;;;;;;;;;22.14;100.00;99675.28;4983047;28;19917;-78
2023/06/03 08:35:11;;;;;;;;;;;;;;;22.21;100.00;99673.38;5004664;28;19937;-77
2023/06/03 08:37:37;;;;;;;;;;;;;;;22.23;100.00;99676.69;5002082;28;19963;-78
2023/06/03 08:40:09;;;;;;;;;;;;;;;22.31;100.00;99668.38;5003801;28;19917;-78
2023/06/03 08:42:41;;;;;;;;;;;;;;;22.37;100.00;99675.56;5001808;28;19921;-77
2023/06/03 08:45:07;;;;;;;;;;;;;;;22.44;100.00;99665.59;5003801;28;20381;-78
2023/06/03 08:47:39;;;;;;;;;;;;;;;22.57;100.00;99674.59;5003767;28;19913;-78
2023/06/03 08:50:05;;;;;;;;;;;;;;;22.63;100.00;99671.88;5002090;28;19924;-75
2023/06/03 08:52:33;;;;;;;;;;;;;;;22.76;100.00;99665.59;4985624;28;19917;-78
2023/06/03 08:55:00;;;;;;;;;;;;;;;22.90;100.00;99667.16;5002786;28;19917;-78
2023/06/03 08:57:27;;;;;;;;;;;;;;;22.91;100.00;99668.81;5002306;28;19918;-78
2023/06/03 08:59:53;;;;;;;;;;;;;;;22.93;100.00;99671.25;5003275;28;20449;-78
2023/06/03 09:02:19;;;;;;;;;;;;;;;22.98;100.00;99664.19;5000839;28;20020;-78
2023/06/03 09:04:47;;;;;;;;;;;;;;;23.04;100.00;99668.69;5004077;28;19917;-78
2023/06/03 09:07:13;;;;;;;;;;;;;;;23.08;100.00;99667.22;5001461;28;19921;-77
2023/06/03 09:09:40;;;;;;;;;;;;;;;23.17;100.00;99671.25;5003789;28;20025;-78
2023/06/03 09:12:06;;;;;;;;;;;;;;;23.28;100.00;99667.84;5001624;28;19987;-78
2023/06/03 09:14:32;;;;;;;;;;;;;;;23.34;100.00;99667.97;5002781;28;20290;-78
2023/06/03 09:16:58;;;;;;;;;;;;;;;23.44;100.00;99658.38;5004690;28;19917;-78
2023/06/03 09:19:26;;;;;;;;;;;;;;;23.30;100.00;99661.41;5001822;28;19924;-78
2023/06/03 09:21:53;;;;;;;;;;;;;;;23.35;100.00;99658.88;5002738;28;19923;-77
2023/06/03 09:24:18;;;;;;;;;;;;;;;23.41;100.00;99663.38;5001323;28;20279;-77
2023/06/03 09:26:44;;;;;;;;;;;;;;;23.44;100.00;99669.16;5006373;28;19973;-77
2023/06/03 09:29:12;;;;;;;;;;;;;;;23.35;100.00;99669.63;5004397;28;19917;-77
2023/06/03 09:31:38;;;;;;;;;;;;;;;23.26;100.00;99667.25;5007863;28;19917;-78
2023/06/03 09:34:03;;;;;;;;;;;;;;;23.34;100.00;99668.81;5008032;28;19928;-78
2023/06/03 09:36:30;;;;;;;;;;;;;;;23.43;100.00;99672.06;5009101;28;19917;-78
2023/06/03 09:38:56;;;;;;;;;;;;;;;23.39;100.00;99670.84;5009898;28;19917;-77
2023/06/03 09:41:23;;;;;;;;;;;;;;;23.32;100.00;99664.72;5009265;28;19985;-77
2023/06/03 09:43:52;;;;;;;;;;;;;;;23.26;100.00;99675.31;5007790;28;19921;-78
2023/06/03 09:46:20;;;;;;;;;;;;;;;23.33;100.00;99666.38;5014503;28;19936;-76
2023/06/03 09:48:45;;;;;;;;;;;;;;;23.21;100.00;99664.38;5010921;28;19917;-78
2023/06/03 09:51:11;;;;;;;;;;;;;;;23.19;100.00;99665.66;5007982;28;19918;-78
2023/06/03 09:53:37;;;;;;;;;;;;;;;23.16;100.00;99666.91;5010225;28;20015;-77
2023/06/03 09:56:22;;;;;;;;;;;;;;;23.18;100.00;99667.53;5010183;28;19921;-77
2023/06/03 09:58:47;;;;;;;;;;;;;;;23.23;100.00;99662.28;5008267;28;20249;-78
2023/06/03 10:01:13;;;;;;;;;;;;;;;23.27;100.00;99657.28;5011488;28;19971;-77
2023/06/03 10:03:56;;;;;;;;;;;;;;;23.26;100.00;99656.47;5006726;28;19940;-77
2023/06/03 10:06:21;;;;;;;;;;;;;;;23.25;100.00;99654.84;5009362;28;19917;-76
2023/06/03 10:08:46;;;;;;;;;;;;;;;23.15;100.00;99654.50;5005352;28;19929;-78
2023/06/03 10:11:12;;;;;;;;;;;;;;;23.07;100.00;99652.09;5005617;28;19925;-78
2023/06/03 10:13:37;;;;;;;;;;;;;;;23.15;100.00;99659.09;5005532;28;19918;-78
2023/06/03 10:16:09;;;;;;;;;;;;;;;23.19;100.00;99650.34;5011821;28;19944;-77
2023/06/03 10:18:43;;;;;;;;;;;;;;;23.31;100.00;99652.28;5008137;28;20089;-77
2023/06/03 10:21:10;;;;;;;;;;;;;;;23.36;100.00;99649.75;5010097;28;19988;-78
2023/06/03 10:23:39;;;;;;;;;;;;;;;23.46;100.00;99650.03;5002103;28;19917;-77
2023/06/03 10:26:06;;;;;;;;;;;;;;;23.42;100.00;99643.47;5008393;28;19925;-79
2023/06/03 10:28:32;;;;;;;;;;;;;;;23.38;100.00;99642.28;5003618;28;20008;-78
2023/06/03 10:30:59;;;;;;;;;;;;;;;23.39;100.00;99638.50;4995488;28;19956;-77
2023/06/03 10:33:26;;;;;;;;;;;;;;;23.34;100.00;99638.38;5012368;28;19929;-78
2023/06/03 10:35:52;;;;;;;;;;;;;;;23.44;100.00;99641.38;5010881;28;19993;-77
2023/06/03 10:38:18;;;;;;;;;;;;;;;23.61;100.00;99637.91;5016766;28;19917;-78
2023/06/03 10:40:44;;;;;;;;;;;;;;;23.78;100.00;99631.91;5008110;28;19984;-78
2023/06/03 10:43:09;;;;;;;;;;;;;;;23.79;100.00;99634.38;4992619;28;20390;-76
2023/06/03 10:45:35;;;;;;;;;;;;;;;23.90;100.00;99625.53;5017282;28;19939;-77
2023/06/03 10:48:07;;;;;;;;;;;;;;;23.98;100.00;99625.19;5017543;28;19948;-78
2023/06/03 10:50:35;;;;;;;;;;;;;;;24.03;100.00;99625.31;4994326;28;20011;-77
2023/06/03 10:53:19;;;;;;;;;;;;;;;24.13;100.00;99619.41;5007877;28;19913;-78
2023/06/03 10:56:02;;;;;;;;;;;;;;;24.17;100.00;99619.75;5006228;28;19964;-78
2023/06/03 10:58:28;;;;;;;;;;;;;;;24.05;100.00;99617.84;5004465;28;19997;-78
2023/06/03 11:01:01;;;;;;;;;;;;;;;23.93;99.27;99614.28;5005047;28;19921;-77
2023/06/03 11:03:27;;;;;;;;;;;;;;;23.82;98.78;99611.53;5005409;28;19926;-78
2023/06/03 11:05:53;;;;;;;;;;;;;;;23.84;97.92;99615.66;5009046;28;19988;-78
2023/06/03 11:08:37;;;;;;;;;;;;;;;23.91;98.62;99602.09;5006815;28;19917;-78
2023/06/03 11:11:03;;;;;;;;;;;;;;;23.99;98.33;99604.44;5005752;28;19922;-79
2023/06/03 11:13:38;;;;;;;;;;;;;;;23.97;98.28;99604.69;5005361;28;19985;-79
2023/06/03 11:16:04;;;;;;;;;;;;;;;24.00;99.04;99601.53;5005975;28;20258;-79
2023/06/03 11:18:30;;;;;;;;;;;;;;;24.03;97.07;99608.34;5006507;28;19913;-79
2023/06/03 11:20:55;;;;;;;;;;;;;;;24.07;97.03;99604.13;5005153;28;20360;-78
2023/06/03 11:23:40;;;;;;;;;;;;;;;24.13;96.65;99597.00;5004150;28;19964;-79
2023/06/03 11:26:24;;;;;;;;;;;;;;;24.21;96.86;99602.91;4989838;28;19952;-79
2023/06/03 11:28:50;;;;;;;;;;;;;;;24.25;96.32;99595.22;5003090;28;19921;-77
2023/06/03 11:31:17;;;;;;;;;;;;;;;24.27;97.20;99593.13;5007275;28;19917;-79
2023/06/03 11:34:03;;;;;;;;;;;;;;;24.29;95.57;99596.38;5002803;28;19976;-80
2023/06/03 11:36:45;;;;;;;;;;;;;;;24.32;94.11;99599.47;5004484;28;19953;-78
2023/06/03 11:39:10;;;;;;;;;;;;;;;24.37;93.40;99598.75;5003199;28;20009;-79
2023/06/03 11:41:55;;;;;;;;;;;;;;;24.40;93.80;99599.09;5005465;28;19929;-78
2023/06/03 11:44:21;;;;;;;;;;;;;;;24.46;95.13;99602.75;5003589;28;20267;-76
2023/06/03 11:46:51;;;;;;;;;;;;;;;24.50;96.61;99597.72;4991115;28;19944;-78
2023/06/03 11:49:17;;;;;;;;;;;;;;;24.44;94.49;99588.69;5002746;28;19941;-79
2023/06/03 11:51:43;;;;;;;;;;;;;;;24.48;95.25;99595.25;5005638;28;19936;-77
2023/06/03 11:54:11;;;;;;;;;;;;;;;24.57;95.76;99593.84;5002365;28;19925;-77
2023/06/03 11:56:45;;;;;;;;;;;;;;;24.68;94.40;99594.94;5004787;28;19924;-78
2023/06/03 11:59:12;;;;;;;;;;;;;;;24.78;91.84;99589.78;5002412;28;20367;-78
2023/06/03 12:01:52;;;;;;;;;;;;;;;24.96;91.35;99586.19;4987460;28;19992;-77
2023/06/03 12:04:19;;;;;;;;;;;;;;;25.18;90.68;99589.91;4984899;28;20297;-78
2023/06/03 12:06:45;;;;;;;;;;;;;;;25.37;86.76;99594.13;5004895;28;20395;-78
2023/06/03 12:09:15;;;;;;;;;;;;;;;25.56;84.67;99586.69;5002200;28;19918;-78
2023/06/03 12:11:42;;;;;;;;;;;;;;;25.81;83.23;99578.28;5006164;28;20019;-77
2023/06/03 12:14:08;;;;;;;;;;;;;;;25.73;81.42;99576.78;5002255;28;20287;-78
2023/06/03 12:16:35;;;;;;;;;;;;;;;25.76;81.98;99581.69;4989357;28;20358;-78
2023/06/03 12:19:03;;;;;;;;;;;;;;;25.91;79.31;99583.91;5003097;28;20278;-79
2023/06/03 12:21:29;;;;;;;;;;;;;;;25.95;78.21;99583.16;5003462;28;19918;-78
2023/06/03 12:23:56;;;;;;;;;;;;;;;26.05;77.41;99580.63;5004639;28;19980;-78
2023/06/03 12:26:22;;;;;;;;;;;;;;;26.25;77.38;99577.50;5004163;28;19929;-78
2023/06/03 12:28:47;;;;;;;;;;;;;;;26.18;77.16;99568.69;5001537;28;19940;-78
2023/06/03 12:31:13;;;;;;;;;;;;;;;26.03;77.43;99576.56;5001623;28;19918;-78
2023/06/03 12:33:40;;;;;;;;;;;;;;;26.17;77.87;99572.47;5000793;28;19924;-78
2023/06/03 12:36:08;;;;;;;;;;;;;;;26.42;76.46;99570.22;5004842;28;20286;-78
2023/06/03 12:38:33;;;;;;;;;;;;;;;26.71;76.06;99573.69;5002561;28;20329;-77
2023/06/03 12:41:10;;;;;;;;;;;;;;;27.03;75.30;99564.97;5002770;28;19957;-78